Time;durP1;ratioP1;P1;durP2;ratioP2;P2;SDS_P1;SDS_P2;PMS_P1;PMS_P2;Temp;Humidity;BMP_temperature;BMP_pressure;BME280_temperature;BME280_humidity;BME280_pressure;Samples;Min_cycle;Max_cycle;Signal;HPM_P1;HPM_P2
2022/01/03 00:02:11;;;;;;;22.75;16.20;;;;;;;;;;5019777;28;20050;-79
2022/01/03 00:04:37;;;;;;;21.80;15.27;;;;;;;;;;5020113;28;20033;-78
2022/01/03 00:07:04;;;;;;;23.67;15.55;;;;;;;;;;5020579;28;20030;-77
2022/01/03 00:09:30;;;;;;;20.58;15.18;;;;;;;;;;5019478;28;20157;-78
2022/01/03 00:12:06;;;;;;;22.02;15.02;;;;;;;;;;5018668;28;20410;-78
2022/01/03 00:14:40;;;;;;;21.60;14.60;;;;;;;;;;5020484;28;20033;-78
2022/01/03 00:17:06;;;;;;;18.77;12.73;;;;;;;;;;5018043;28;20012;-78
2022/01/03 00:19:33;;;;;;;17.95;12.68;;;;;;;;;;5019110;28;20126;-77
2022/01/03 00:22:04;;;;;;;18.73;12.82;;;;;;;;;;5019325;28;20022;-78
2022/01/03 00:24:35;;;;;;;19.77;12.90;;;;;;;;;;5021172;28;20025;-79
2022/01/03 00:27:03;;;;;;;16.08;10.82;;;;;;;;;;5017954;28;20109;-80
2022/01/03 00:29:33;;;;;;;14.88;10.57;;;;;;;;;;5018427;28;20018;-77
2022/01/03 00:31:59;;;;;;;15.13;10.15;;;;;;;;;;5017260;28;20032;-78
2022/01/03 00:34:29;;;;;;;14.77;9.27;;;;;;;;;;5017314;28;20035;-78
2022/01/03 00:36:56;;;;;;;15.27;9.88;;;;;;;;;;5016211;28;20030;-78
2022/01/03 00:39:22;;;;;;;12.63;9.77;;;;;;;;;;5017816;28;20044;-78
2022/01/03 00:41:49;;;;;;;14.05;9.82;;;;;;;;;;5018709;28;20089;-77
2022/01/03 00:44:16;;;;;;;12.70;8.40;;;;;;;;;;5017861;28;20044;-78
2022/01/03 00:46:43;;;;;;;12.63;9.18;;;;;;;;;;5018747;28;20113;-78
2022/01/03 00:49:10;;;;;;;14.23;9.25;;;;;;;;;;5019795;28;20473;-78
2022/01/03 00:51:36;;;;;;;11.48;8.32;;;;;;;;;;5019541;28;20041;-78
2022/01/03 00:54:02;;;;;;;11.73;7.43;;;;;;;;;;5017913;28;20566;-77
2022/01/03 00:56:30;;;;;;;12.25;7.85;;;;;;;;;;5019862;28;20029;-78
2022/01/03 00:59:05;;;;;;;10.82;7.53;;;;;;;;;;5019069;28;20507;-77
2022/01/03 01:01:31;;;;;;;11.68;7.65;;;;;;;;;;5017249;28;20049;-77
2022/01/03 01:03:58;;;;;;;11.93;6.68;;;;;;;;;;5017142;28;20026;-78
2022/01/03 01:06:25;;;;;;;11.43;7.57;;;;;;;;;;5017852;28;20022;-78
2022/01/03 01:08:57;;;;;;;11.30;7.07;;;;;;;;;;5021517;28;20026;-80
2022/01/03 01:11:28;;;;;;;11.10;7.07;;;;;;;;;;5020544;28;20564;-78
2022/01/03 01:13:54;;;;;;;9.85;6.47;;;;;;;;;;5021712;28;20030;-79
2022/01/03 01:16:21;;;;;;;11.88;7.40;;;;;;;;;;5019457;28;20030;-78
2022/01/03 01:18:47;;;;;;;9.60;6.22;;;;;;;;;;5020452;28;20032;-78
2022/01/03 01:21:14;;;;;;;10.77;6.90;;;;;;;;;;5021986;28;20069;-79
2022/01/03 01:23:42;;;;;;;10.07;6.82;;;;;;;;;;5020432;28;20623;-78
2022/01/03 01:28:53;;;;;;;11.77;6.85;;;;;;;;;;5021961;28;20064;-80
2022/01/03 01:31:21;;;;;;;10.70;6.63;;;;;;;;;;5020031;28;20111;-78
2022/01/03 01:33:51;;;;;;;11.65;6.80;;;;;;;;;;5021884;28;20030;-79
2022/01/03 01:36:17;;;;;;;9.95;7.00;;;;;;;;;;5020583;28;20060;-79
2022/01/03 01:38:48;;;;;;;10.10;6.82;;;;;;;;;;5023408;28;20496;-78
2022/01/03 01:41:17;;;;;;;9.65;6.75;;;;;;;;;;5021860;28;20037;-78
2022/01/03 01:43:45;;;;;;;11.75;7.57;;;;;;;;;;5020274;28;20053;-79
2022/01/03 01:46:13;;;;;;;11.20;6.97;;;;;;;;;;5021411;28;20034;-79
2022/01/03 01:48:40;;;;;;;9.90;6.70;;;;;;;;;;5020894;28;20082;-79
2022/01/03 01:51:07;;;;;;;11.02;7.10;;;;;;;;;;5021780;28;20049;-78
2022/01/03 01:53:39;;;;;;;10.85;7.03;;;;;;;;;;5019566;28;20056;-79
2022/01/03 01:56:09;;;;;;;11.60;7.75;;;;;;;;;;5021121;28;20034;-79
2022/01/03 01:58:45;;;;;;;10.90;6.80;;;;;;;;;;5016793;28;20032;-77
2022/01/03 02:01:13;;;;;;;11.02;6.90;;;;;;;;;;5017976;28;20025;-81
2022/01/03 02:03:53;;;;;;;9.88;6.65;;;;;;;;;;5019025;28;20481;-77
2022/01/03 02:06:38;;;;;;;9.90;6.35;;;;;;;;;;5018615;28;20026;-77
2022/01/03 02:09:08;;;;;;;10.70;6.50;;;;;;;;;;5017778;28;20018;-78
2022/01/03 02:11:49;;;;;;;11.10;6.57;;;;;;;;;;5018246;28;20025;-78
2022/01/03 02:14:16;;;;;;;9.38;6.65;;;;;;;;;;5017447;28;20068;-78
2022/01/03 02:16:42;;;;;;;10.50;5.97;;;;;;;;;;5018239;28;20033;-79
2022/01/03 02:19:09;;;;;;;11.45;6.60;;;;;;;;;;5018465;28;20084;-77
2022/01/03 02:21:35;;;;;;;12.20;6.68;;;;;;;;;;5017925;28;20034;-78
2022/01/03 02:24:03;;;;;;;10.95;6.97;;;;;;;;;;5018821;28;20496;-78
2022/01/03 02:26:29;;;;;;;9.60;6.95;;;;;;;;;;5018247;28;20023;-78
2022/01/03 02:28:56;;;;;;;9.98;6.65;;;;;;;;;;5020440;28;20049;-77
2022/01/03 02:31:22;;;;;;;10.77;6.88;;;;;;;;;;5020339;28;20468;-78
2022/01/03 02:33:48;;;;;;;11.73;6.65;;;;;;;;;;5020913;28;20080;-78
2022/01/03 02:36:16;;;;;;;9.35;6.50;;;;;;;;;;5021993;28;20100;-78
2022/01/03 02:38:42;;;;;;;10.00;6.45;;;;;;;;;;5019738;28;20056;-78
2022/01/03 02:41:08;;;;;;;9.68;6.43;;;;;;;;;;5020032;28;20022;-77
2022/01/03 02:43:34;;;;;;;11.15;6.40;;;;;;;;;;5019296;28;20041;-77
2022/01/03 02:46:00;;;;;;;10.43;7.10;;;;;;;;;;5021075;28;20030;-78
2022/01/03 02:48:27;;;;;;;9.40;6.70;;;;;;;;;;5020133;28;20034;-77
2022/01/03 02:50:53;;;;;;;12.15;7.82;;;;;;;;;;5022998;28;20370;-79
2022/01/03 02:53:19;;;;;;;8.90;6.38;;;;;;;;;;5023257;28;20026;-78
2022/01/03 02:55:46;;;;;;;11.45;6.45;;;;;;;;;;5022690;28;20098;-78
2022/01/03 02:58:12;;;;;;;11.38;6.80;;;;;;;;;;5023000;28;20400;-79
2022/01/03 03:00:47;;;;;;;9.35;6.03;;;;;;;;;;5023877;28;20518;-78
2022/01/03 03:03:14;;;;;;;9.43;6.15;;;;;;;;;;5028119;28;20022;-79
2022/01/03 03:05:40;;;;;;;11.38;6.78;;;;;;;;;;5027163;28;20098;-79
2022/01/03 03:08:06;;;;;;;10.63;7.20;;;;;;;;;;5024365;28;20368;-78
2022/01/03 03:10:33;;;;;;;12.80;6.32;;;;;;;;;;5023459;28;20061;-78
2022/01/03 03:12:59;;;;;;;11.65;7.35;;;;;;;;;;5023377;28;20452;-79
2022/01/03 03:15:25;;;;;;;9.75;6.22;;;;;;;;;;5022346;28;20026;-78
2022/01/03 03:17:51;;;;;;;9.15;5.93;;;;;;;;;;5022375;28;20057;-78
2022/01/03 03:20:28;;;;;;;10.43;6.28;;;;;;;;;;5023577;28;20022;-79
2022/01/03 03:22:55;;;;;;;10.07;5.07;;;;;;;;;;5022438;28;20026;-78
2022/01/03 03:25:23;;;;;;;6.43;3.50;;;;;;;;;;5021981;28;20022;-79
2022/01/03 03:27:53;;;;;;;6.00;3.90;;;;;;;;;;5022101;28;20026;-79
2022/01/03 03:30:22;;;;;;;5.70;3.20;;;;;;;;;;5021642;28;20660;-79
2022/01/03 03:32:49;;;;;;;6.10;3.40;;;;;;;;;;5023860;28;20029;-77
2022/01/03 03:35:15;;;;;;;6.25;3.20;;;;;;;;;;5020916;28;20030;-78
2022/01/03 03:37:41;;;;;;;5.35;2.80;;;;;;;;;;5021499;28;20022;-78
2022/01/03 03:40:08;;;;;;;6.22;3.22;;;;;;;;;;5021927;28;20483;-77
2022/01/03 03:42:34;;;;;;;6.15;3.33;;;;;;;;;;5022039;28;20022;-78
2022/01/03 03:45:00;;;;;;;6.55;3.38;;;;;;;;;;5023256;28;20029;-79
2022/01/03 03:47:26;;;;;;;5.75;3.17;;;;;;;;;;5022663;28;20026;-77
2022/01/03 03:49:52;;;;;;;7.65;3.95;;;;;;;;;;5021133;28;20037;-78
2022/01/03 03:52:18;;;;;;;6.88;3.20;;;;;;;;;;5022994;28;20030;-78
2022/01/03 03:54:44;;;;;;;7.15;3.20;;;;;;;;;;5023928;28;20053;-77
2022/01/03 03:57:12;;;;;;;6.95;3.42;;;;;;;;;;5021604;28;20033;-78
2022/01/03 03:59:38;;;;;;;5.97;3.28;;;;;;;;;;5018770;28;20073;-77
2022/01/03 04:02:05;;;;;;;6.18;2.97;;;;;;;;;;5020885;28;20029;-78
2022/01/03 04:04:32;;;;;;;6.38;3.15;;;;;;;;;;5021548;28;20072;-77
2022/01/03 04:06:58;;;;;;;6.75;3.00;;;;;;;;;;5022346;28;20022;-77
2022/01/03 04:09:24;;;;;;;5.03;3.25;;;;;;;;;;5019386;28;20124;-78
2022/01/03 04:11:51;;;;;;;6.45;3.22;;;;;;;;;;5022184;28;20022;-77
2022/01/03 04:14:17;;;;;;;6.68;2.63;;;;;;;;;;5020987;28;20492;-78
2022/01/03 04:16:43;;;;;;;5.15;2.97;;;;;;;;;;5021152;28;20052;-78
2022/01/03 04:19:09;;;;;;;6.43;2.60;;;;;;;;;;5019716;28;20040;-78
2022/01/03 04:21:37;;;;;;;5.93;3.15;;;;;;;;;;5019934;28;20136;-78
2022/01/03 04:24:04;;;;;;;5.28;2.90;;;;;;;;;;5018728;28;20476;-78
2022/01/03 04:26:30;;;;;;;4.80;2.80;;;;;;;;;;5020774;28;20086;-78
2022/01/03 04:28:56;;;;;;;6.50;3.00;;;;;;;;;;5018791;28;20029;-78
2022/01/03 04:31:23;;;;;;;6.65;3.25;;;;;;;;;;5019656;28;20026;-78
2022/01/03 04:33:49;;;;;;;6.25;2.92;;;;;;;;;;5019831;28;20014;-78
2022/01/03 04:36:15;;;;;;;4.85;2.70;;;;;;;;;;5018294;28;20104;-78
2022/01/03 04:38:42;;;;;;;5.57;2.97;;;;;;;;;;5019188;28;20030;-78
2022/01/03 04:41:10;;;;;;;5.85;2.90;;;;;;;;;;5019013;28;20443;-79
2022/01/03 04:43:36;;;;;;;7.80;3.53;;;;;;;;;;5020472;28;20388;-80
2022/01/03 04:46:02;;;;;;;6.50;3.13;;;;;;;;;;5018818;28;20026;-78
2022/01/03 04:48:28;;;;;;;6.88;2.85;;;;;;;;;;5019137;28;20022;-77
2022/01/03 04:50:55;;;;;;;5.82;2.83;;;;;;;;;;5019107;28;20018;-78
2022/01/03 04:53:25;;;;;;;6.15;2.95;;;;;;;;;;5019038;28;20034;-77
2022/01/03 04:55:51;;;;;;;5.55;3.00;;;;;;;;;;5017833;28;20030;-77
2022/01/03 04:58:17;;;;;;;8.10;3.13;;;;;;;;;;5018618;28;20032;-77
2022/01/03 05:00:47;;;;;;;6.80;3.00;;;;;;;;;;5019156;28;20033;-78
2022/01/03 05:03:14;;;;;;;5.50;2.80;;;;;;;;;;5019240;28;20496;-78
2022/01/03 05:05:40;;;;;;;6.28;2.70;;;;;;;;;;5019846;28;20465;-76
2022/01/03 05:08:06;;;;;;;5.40;2.70;;;;;;;;;;5020299;28;20029;-78
2022/01/03 05:10:33;;;;;;;5.88;2.85;;;;;;;;;;5019354;28;20109;-78
2022/01/03 05:12:59;;;;;;;6.07;2.75;;;;;;;;;;5018498;28;20025;-78
2022/01/03 05:15:25;;;;;;;5.10;2.47;;;;;;;;;;5017873;28;20037;-78
2022/01/03 05:17:53;;;;;;;5.03;2.45;;;;;;;;;;5020489;28;20044;-78
2022/01/03 05:20:19;;;;;;;6.20;2.67;;;;;;;;;;5020536;28;20054;-79
2022/01/03 05:22:46;;;;;;;9.18;2.80;;;;;;;;;;5022156;28;20038;-78
2022/01/03 05:25:13;;;;;;;5.82;2.58;;;;;;;;;;5020971;28;20048;-79
2022/01/03 05:27:40;;;;;;;3.97;2.47;;;;;;;;;;5022624;28;20046;-79
2022/01/03 05:30:07;;;;;;;4.57;1.95;;;;;;;;;;5020859;28;20018;-79
2022/01/03 05:32:33;;;;;;;3.60;1.95;;;;;;;;;;5020812;28;20034;-79
2022/01/03 05:34:59;;;;;;;4.93;2.30;;;;;;;;;;5022251;28;20021;-78
2022/01/03 05:37:25;;;;;;;4.68;2.10;;;;;;;;;;5023294;28;20029;-79
2022/01/03 05:39:51;;;;;;;4.68;1.90;;;;;;;;;;5021965;28;20503;-77
2022/01/03 05:42:17;;;;;;;5.20;1.95;;;;;;;;;;5021735;28;20056;-77
2022/01/03 05:44:44;;;;;;;5.05;2.08;;;;;;;;;;5022793;28;20022;-78
2022/01/03 05:47:10;;;;;;;5.32;1.80;;;;;;;;;;5022465;28;20393;-78
2022/01/03 05:49:36;;;;;;;5.43;1.98;;;;;;;;;;5023196;28;20060;-78
2022/01/03 05:52:03;;;;;;;4.45;2.08;;;;;;;;;;5022399;28;20414;-79
2022/01/03 05:54:29;;;;;;;5.88;2.05;;;;;;;;;;5022879;28;20341;-79
2022/01/03 05:56:55;;;;;;;6.90;1.90;;;;;;;;;;5020775;28;20026;-78
2022/01/03 05:59:21;;;;;;;4.63;1.85;;;;;;;;;;5021500;28;20034;-78
2022/01/03 06:01:47;;;;;;;5.43;1.75;;;;;;;;;;5018872;28;20129;-77
2022/01/03 06:04:22;;;;;;;4.03;1.65;;;;;;;;;;5023723;28;20384;-78
2022/01/03 06:06:59;;;;;;;4.60;1.80;;;;;;;;;;5023348;28;20061;-78
2022/01/03 06:09:25;;;;;;;4.95;2.03;;;;;;;;;;5022989;28;20116;-77
2022/01/03 06:11:52;;;;;;;6.68;1.90;;;;;;;;;;5022160;28;20026;-77
2022/01/03 06:14:19;;;;;;;6.65;2.60;;;;;;;;;;5021792;28;20045;-78
2022/01/03 06:16:45;;;;;;;4.80;2.17;;;;;;;;;;5024090;28;20022;-77
2022/01/03 06:19:12;;;;;;;5.15;1.63;;;;;;;;;;5026367;28;20029;-78
2022/01/03 06:21:41;;;;;;;5.47;1.90;;;;;;;;;;5022938;28;20037;-78
2022/01/03 06:24:09;;;;;;;5.32;1.95;;;;;;;;;;5023838;28;20125;-79
2022/01/03 06:26:36;;;;;;;4.10;1.58;;;;;;;;;;5023664;28;20014;-78
2022/01/03 06:29:02;;;;;;;4.13;1.40;;;;;;;;;;5021624;28;20026;-78
2022/01/03 06:31:29;;;;;;;5.50;1.73;;;;;;;;;;5020375;28;20033;-79
2022/01/03 06:33:55;;;;;;;3.92;1.70;;;;;;;;;;5022337;28;20054;-78
2022/01/03 06:36:21;;;;;;;5.53;2.20;;;;;;;;;;5019595;28;20029;-79
2022/01/03 06:38:47;;;;;;;4.47;1.83;;;;;;;;;;5020169;28;20097;-79
2022/01/03 06:41:13;;;;;;;4.70;1.95;;;;;;;;;;5017989;28;20503;-78
2022/01/03 06:43:39;;;;;;;4.40;1.80;;;;;;;;;;5019460;28;20085;-79
2022/01/03 06:46:05;;;;;;;4.53;1.65;;;;;;;;;;5019082;28;20559;-78
2022/01/03 06:48:31;;;;;;;3.97;1.77;;;;;;;;;;5018735;28;20022;-77
2022/01/03 06:50:57;;;;;;;4.30;1.63;;;;;;;;;;5018363;28;20046;-79
2022/01/03 06:53:23;;;;;;;4.85;1.75;;;;;;;;;;5017101;28;20021;-77
2022/01/03 06:55:49;;;;;;;4.53;1.63;;;;;;;;;;5016127;28;20120;-79
2022/01/03 06:58:16;;;;;;;4.55;2.15;;;;;;;;;;5017589;28;20026;-77
2022/01/03 07:00:42;;;;;;;4.97;1.95;;;;;;;;;;5018685;28;20022;-77
2022/01/03 07:03:08;;;;;;;4.00;1.70;;;;;;;;;;5017980;28;20021;-78
2022/01/03 07:05:34;;;;;;;5.70;1.88;;;;;;;;;;5018396;28;20557;-79
2022/01/03 07:08:00;;;;;;;4.30;1.92;;;;;;;;;;5018129;28;20022;-78
2022/01/03 07:10:26;;;;;;;4.80;1.92;;;;;;;;;;5017408;28;20025;-80
2022/01/03 07:12:54;;;;;;;5.55;2.00;;;;;;;;;;5019634;28;20086;-78
2022/01/03 07:20:50;;;;;;;5.55;2.30;;;;;;;;;;5018303;28;20507;-79
2022/01/03 07:23:16;;;;;;;5.78;2.83;;;;;;;;;;5018151;28;20045;-77
2022/01/03 07:25:44;;;;;;;5.78;2.17;;;;;;;;;;5017365;28;20034;-77
2022/01/03 07:28:10;;;;;;;5.18;2.13;;;;;;;;;;5016693;28;20025;-79
2022/01/03 07:30:36;;;;;;;5.70;2.40;;;;;;;;;;5016724;28;20116;-78
2022/01/03 07:33:02;;;;;;;5.32;2.28;;;;;;;;;;5016593;28;20436;-78
2022/01/03 07:35:28;;;;;;;6.18;2.35;;;;;;;;;;5017806;28;20060;-78
2022/01/03 07:37:54;;;;;;;4.00;1.90;;;;;;;;;;5017047;28;20030;-78
2022/01/03 07:40:21;;;;;;;5.72;2.00;;;;;;;;;;5017720;28;20034;-78
2022/01/03 07:42:47;;;;;;;4.80;2.08;;;;;;;;;;5017771;28;20423;-78
2022/01/03 07:45:13;;;;;;;4.57;1.83;;;;;;;;;;5019958;28;20060;-78
2022/01/03 07:47:39;;;;;;;4.68;1.48;;;;;;;;;;5020495;28;20488;-78
2022/01/03 07:50:06;;;;;;;4.53;1.90;;;;;;;;;;5021333;28;20469;-78
2022/01/03 07:52:33;;;;;;;4.40;2.17;;;;;;;;;;5023443;28;20054;-79
2022/01/03 07:54:59;;;;;;;4.13;1.75;;;;;;;;;;5019156;28;20060;-78
2022/01/03 07:57:26;;;;;;;3.80;1.40;;;;;;;;;;5016617;28;20054;-78
2022/01/03 07:59:52;;;;;;;3.38;1.27;;;;;;;;;;5014976;28;20099;-78
2022/01/03 08:02:18;;;;;;;7.13;1.95;;;;;;;;;;5015684;28;20029;-79
2022/01/03 08:04:45;;;;;;;2.33;1.02;;;;;;;;;;5015139;28;20090;-77
2022/01/03 08:07:11;;;;;;;4.85;1.23;;;;;;;;;;5016962;28;20044;-77
2022/01/03 08:09:37;;;;;;;2.60;0.75;;;;;;;;;;5016896;28;20061;-78
2022/01/03 08:12:05;;;;;;;2.80;1.08;;;;;;;;;;5015213;28;20396;-78
2022/01/03 08:14:31;;;;;;;4.05;1.30;;;;;;;;;;5015947;28;20041;-77
2022/01/03 08:16:57;;;;;;;6.35;2.20;;;;;;;;;;5017340;28;20029;-78
2022/01/03 08:19:23;;;;;;;4.20;1.50;;;;;;;;;;5016866;28;20018;-78
2022/01/03 08:21:50;;;;;;;2.67;1.00;;;;;;;;;;5016657;28;20472;-78
2022/01/03 08:24:17;;;;;;;3.60;1.55;;;;;;;;;;5018754;28;20034;-80
2022/01/03 08:26:43;;;;;;;2.85;0.95;;;;;;;;;;5016898;28;20480;-77
2022/01/03 08:29:09;;;;;;;1.70;0.70;;;;;;;;;;5017519;28;20122;-77
2022/01/03 08:31:37;;;;;;;3.05;1.00;;;;;;;;;;5017431;28;20045;-77
2022/01/03 08:34:03;;;;;;;4.32;1.17;;;;;;;;;;5016895;28;20488;-78
2022/01/03 08:36:29;;;;;;;2.42;0.90;;;;;;;;;;5018020;28;20032;-78
2022/01/03 08:38:55;;;;;;;4.35;1.30;;;;;;;;;;5017018;28;20111;-78
2022/01/03 08:41:22;;;;;;;2.25;0.85;;;;;;;;;;5016902;28;20022;-78
2022/01/03 08:43:48;;;;;;;2.70;1.00;;;;;;;;;;5017330;28;20071;-78
2022/01/03 08:46:14;;;;;;;3.22;1.00;;;;;;;;;;5016388;28;20022;-78
2022/01/03 08:48:40;;;;;;;3.13;1.00;;;;;;;;;;5017898;28;20540;-78
2022/01/03 08:51:06;;;;;;;3.90;1.17;;;;;;;;;;5015679;28;20068;-78
2022/01/03 08:53:33;;;;;;;3.45;1.20;;;;;;;;;;5016124;28;20050;-78
2022/01/03 08:56:00;;;;;;;2.50;1.10;;;;;;;;;;5016747;28;20034;-78
2022/01/03 08:58:26;;;;;;;3.53;1.27;;;;;;;;;;5014884;28;20108;-79
2022/01/03 09:00:52;;;;;;;3.70;1.20;;;;;;;;;;5016650;28;20026;-78
2022/01/03 09:03:19;;;;;;;3.05;1.10;;;;;;;;;;5019641;28;20026;-79
2022/01/03 09:05:46;;;;;;;2.92;1.10;;;;;;;;;;5016753;28;20050;-77
2022/01/03 09:08:12;;;;;;;3.75;1.20;;;;;;;;;;5014987;28;20054;-78
2022/01/03 09:10:40;;;;;;;3.03;1.10;;;;;;;;;;5014705;28;20017;-77
2022/01/03 09:13:06;;;;;;;4.18;1.20;;;;;;;;;;5015153;28;20046;-78
2022/01/03 09:15:32;;;;;;;4.85;1.55;;;;;;;;;;5016966;28;20034;-78
2022/01/03 09:17:58;;;;;;;5.03;1.73;;;;;;;;;;5017705;28;20480;-78
2022/01/03 09:20:24;;;;;;;3.70;1.30;;;;;;;;;;5017777;28;20029;-78
2022/01/03 09:22:53;;;;;;;3.83;1.40;;;;;;;;;;5017572;28;20026;-79
2022/01/03 09:30:46;;;;;;;3.35;1.33;;;;;;;;;;5023006;28;20088;-77
2022/01/03 09:33:12;;;;;;;4.10;1.50;;;;;;;;;;5021769;28;20044;-78
2022/01/03 09:35:39;;;;;;;4.28;1.30;;;;;;;;;;5018394;28;20058;-79
2022/01/03 09:38:05;;;;;;;3.83;1.35;;;;;;;;;;5020298;28;20045;-78
2022/01/03 09:40:31;;;;;;;4.93;1.35;;;;;;;;;;5021880;28;20026;-78
2022/01/03 09:42:58;;;;;;;6.15;1.40;;;;;;;;;;5020706;28;20026;-79
2022/01/03 09:45:26;;;;;;;3.90;1.30;;;;;;;;;;5021792;28;20042;-79
2022/01/03 09:47:53;;;;;;;3.10;0.93;;;;;;;;;;5020201;28;20019;-79
2022/01/03 09:50:21;;;;;;;3.53;1.20;;;;;;;;;;5020889;28;20063;-79
2022/01/03 09:52:48;;;;;;;4.18;1.63;;;;;;;;;;5021347;28;20029;-79
2022/01/03 09:55:15;;;;;;;6.95;1.70;;;;;;;;;;5018765;28;20096;-79
2022/01/03 09:57:44;;;;;;;4.28;1.27;;;;;;;;;;5019496;28;20040;-78
2022/01/03 10:00:11;;;;;;;4.47;1.30;;;;;;;;;;5020596;28;20511;-79
2022/01/03 10:02:38;;;;;;;4.07;1.27;;;;;;;;;;5020639;28;20044;-81
2022/01/03 10:05:05;;;;;;;3.25;1.00;;;;;;;;;;5022323;28;20022;-79
2022/01/03 10:07:33;;;;;;;3.20;1.00;;;;;;;;;;5020929;28;20022;-79
2022/01/03 10:10:00;;;;;;;3.90;1.10;;;;;;;;;;5021846;28;20053;-79
2022/01/03 10:12:26;;;;;;;3.85;1.20;;;;;;;;;;5022012;28;20029;-79
2022/01/03 10:14:52;;;;;;;2.58;1.00;;;;;;;;;;5022188;28;20081;-80
2022/01/03 10:17:18;;;;;;;3.90;1.02;;;;;;;;;;5020605;28;20036;-79
2022/01/03 10:19:58;;;;;;;3.25;1.10;;;;;;;;;;5021547;28;20030;-79
2022/01/03 10:22:29;;;;;;;5.05;1.00;;;;;;;;;;5019510;28;20022;-79
2022/01/03 10:24:58;;;;;;;3.50;1.20;;;;;;;;;;5020077;28;20117;-80
2022/01/03 10:27:25;;;;;;;3.70;1.30;;;;;;;;;;5021036;28;20065;-79
2022/01/03 10:29:55;;;;;;;4.38;1.40;;;;;;;;;;5019536;28;20022;-79
2022/01/03 10:32:27;;;;;;;3.20;1.10;;;;;;;;;;5021081;28;20026;-79
2022/01/03 10:34:53;;;;;;;4.18;1.27;;;;;;;;;;5021865;28;20022;-79
2022/01/03 10:37:19;;;;;;;4.28;1.20;;;;;;;;;;5020493;28;20033;-79
2022/01/03 10:39:46;;;;;;;4.32;1.80;;;;;;;;;;5021485;28;20034;-78
2022/01/03 10:42:18;;;;;;;4.55;1.50;;;;;;;;;;5021402;28;20046;-80
2022/01/03 10:44:44;;;;;;;;;;;;;;;;;;5021401;28;20029;-79
2022/01/03 10:47:14;;;;;;;4.32;1.40;;;;;;;;;;5021230;28;19906;-79
2022/01/03 10:49:40;;;;;;;3.90;1.35;;;;;;;;;;5022776;28;20053;-79
2022/01/03 10:52:16;;;;;;;3.15;1.35;;;;;;;;;;5024436;28;20165;-81
2022/01/03 10:54:43;;;;;;;3.75;1.58;;;;;;;;;;5023809;28;20120;-79
2022/01/03 10:57:09;;;;;;;4.00;1.88;;;;;;;;;;5024092;28;20488;-80
2022/01/03 10:59:36;;;;;;;3.45;1.30;;;;;;;;;;5021610;28;20026;-77
2022/01/03 11:02:05;;;;;;;3.13;1.30;;;;;;;;;;5021374;28;20026;-80
2022/01/03 11:04:56;;;;;;;4.35;2.17;;;;;;;;;;5023222;28;20030;-78
2022/01/03 11:13:14;;;;;;;3.85;1.40;;;;;;;;;;5024228;28;20041;-79
2022/01/03 11:15:50;;;;;;;3.80;1.35;;;;;;;;;;5020194;28;20448;-78
2022/01/03 11:18:18;;;;;;;3.55;1.20;;;;;;;;;;5016909;28;20029;-77
2022/01/03 11:20:45;;;;;;;3.33;1.27;;;;;;;;;;5018776;28;20032;-78
2022/01/03 11:23:18;;;;;;;3.63;1.10;;;;;;;;;;5019329;28;20034;-80
2022/01/03 11:25:44;;;;;;;5.65;1.58;;;;;;;;;;5020491;28;20038;-78
2022/01/03 11:28:10;;;;;;;3.10;1.38;;;;;;;;;;5021608;28;20061;-79
2022/01/03 11:30:37;;;;;;;4.03;1.50;;;;;;;;;;5019989;28;20064;-79
2022/01/03 11:33:04;;;;;;;4.75;1.42;;;;;;;;;;5019237;28;20407;-78
2022/01/03 11:35:31;;;;;;;3.28;1.35;;;;;;;;;;5021366;28;20026;-80
2022/01/03 11:37:59;;;;;;;4.40;1.63;;;;;;;;;;5020762;28;20026;-78
2022/01/03 11:40:26;;;;;;;3.50;1.45;;;;;;;;;;5018477;28;20022;-78
2022/01/03 11:42:52;;;;;;;5.07;1.77;;;;;;;;;;5019199;28;20496;-78
2022/01/03 11:45:19;;;;;;;3.58;1.10;;;;;;;;;;5019198;28;20072;-79
2022/01/03 11:47:45;;;;;;;4.43;1.50;;;;;;;;;;5021218;28;20080;-78
2022/01/03 11:50:11;;;;;;;3.05;1.17;;;;;;;;;;5020889;28;20049;-78
2022/01/03 11:52:42;;;;;;;3.55;1.20;;;;;;;;;;5020252;28;20160;-78
2022/01/03 11:55:09;;;;;;;3.75;1.10;;;;;;;;;;5021383;28;20081;-78
2022/01/03 12:03:39;;;;;;;5.10;1.40;;;;;;;;;;4999236;28;20126;-77
2022/01/03 12:06:08;;;;;;;4.20;1.20;;;;;;;;;;4996228;28;20444;-78
2022/01/03 12:08:35;;;;;;;4.47;1.20;;;;;;;;;;5006880;28;20495;-78
2022/01/03 12:11:16;;;;;;;3.10;0.93;;;;;;;;;;5019408;28;20024;-78
2022/01/03 12:13:59;;;;;;;2.90;1.02;;;;;;;;;;5018826;28;20037;-78
2022/01/03 12:16:43;;;;;;;4.40;1.20;;;;;;;;;;5012719;28;20030;-78
2022/01/03 12:19:12;;;;;;;3.60;1.42;;;;;;;;;;4996349;28;20054;-78
2022/01/03 12:21:48;;;;;;;4.10;1.80;;;;;;;;;;4996363;28;20496;-78
2022/01/03 12:24:26;;;;;;;2.75;0.80;;;;;;;;;;4996625;28;20026;-78
2022/01/03 12:27:14;;;;;;;2.97;1.20;;;;;;;;;;5011057;28;20022;-77
2022/01/03 12:29:58;;;;;;;4.13;1.10;;;;;;;;;;5019098;28;20575;-78
2022/01/03 12:32:34;;;;;;;1.63;0.80;;;;;;;;;;5018793;28;20089;-79
2022/01/03 12:35:06;;;;;;;2.92;0.90;;;;;;;;;;5019295;28;20030;-78
2022/01/03 12:37:33;;;;;;;3.55;0.90;;;;;;;;;;5022572;28;20037;-78
2022/01/03 12:40:02;;;;;;;2.58;0.80;;;;;;;;;;5022985;28;20056;-79
2022/01/03 12:42:53;;;;;;;3.22;1.00;;;;;;;;;;5020551;28;20088;-78
2022/01/03 12:45:28;;;;;;;3.50;1.00;;;;;;;;;;4999326;28;20045;-78
2022/01/03 12:47:54;;;;;;;4.30;1.10;;;;;;;;;;4997874;28;20022;-79
2022/01/03 12:50:29;;;;;;;3.40;1.00;;;;;;;;;;4999623;28;20027;-78
2022/01/03 12:52:57;;;;;;;2.45;0.80;;;;;;;;;;4998907;28;20489;-78
2022/01/03 12:55:41;;;;;;;2.30;0.80;;;;;;;;;;4998633;28;20053;-79
2022/01/03 12:58:17;;;;;;;3.88;1.00;;;;;;;;;;5004078;28;20117;-78
2022/01/03 13:00:50;;;;;;;2.88;1.00;;;;;;;;;;5020708;28;20026;-79
2022/01/03 13:03:25;;;;;;;2.95;0.95;;;;;;;;;;5022358;28;20026;-78
2022/01/03 13:06:07;;;;;;;2.70;0.90;;;;;;;;;;5022980;28;20032;-79
2022/01/03 13:08:33;;;;;;;3.08;1.00;;;;;;;;;;5024146;28;20022;-79
2022/01/03 13:11:04;;;;;;;2.25;0.80;;;;;;;;;;5022734;28;20030;-78
2022/01/03 13:13:30;;;;;;;3.42;0.90;;;;;;;;;;5023913;28;20049;-79
2022/01/03 13:15:57;;;;;;;3.53;0.90;;;;;;;;;;5021996;28;20094;-81
2022/01/03 13:18:23;;;;;;;3.88;1.00;;;;;;;;;;5021997;28;20109;-79
2022/01/03 13:20:59;;;;;;;3.40;0.90;;;;;;;;;;5022288;28;20068;-78
2022/01/03 13:23:26;;;;;;;3.95;1.25;;;;;;;;;;5024530;28;20022;-78
2022/01/03 13:26:12;;;;;;;4.10;1.30;;;;;;;;;;5023603;28;20029;-79
2022/01/03 13:28:45;;;;;;;3.67;1.10;;;;;;;;;;5023279;28;20030;-80
2022/01/03 13:31:11;;;;;;;4.20;1.10;;;;;;;;;;5026751;28;20048;-78
2022/01/03 13:33:37;;;;;;;4.28;1.13;;;;;;;;;;5027000;28;20057;-78
2022/01/03 13:36:07;;;;;;;3.92;1.10;;;;;;;;;;5027374;28;20062;-79
2022/01/03 13:38:34;;;;;;;3.25;1.17;;;;;;;;;;5023509;28;20022;-79
2022/01/03 13:41:10;;;;;;;2.47;0.88;;;;;;;;;;5022821;28;20441;-79
2022/01/03 13:43:41;;;;;;;3.60;1.13;;;;;;;;;;5023617;28;20041;-78
2022/01/03 13:51:19;;;;;;;4.65;1.30;;;;;;;;;;5024278;28;20153;-79
2022/01/03 13:53:52;;;;;;;3.30;0.95;;;;;;;;;;5022865;28;20065;-80
2022/01/03 13:56:18;;;;;;;4.18;1.25;;;;;;;;;;5023389;28;20021;-79
2022/01/03 13:58:45;;;;;;;3.33;1.00;;;;;;;;;;5022592;28;20464;-79
2022/01/03 14:01:11;;;;;;;3.42;1.10;;;;;;;;;;5023364;28;20046;-78
2022/01/03 14:03:39;;;;;;;3.45;1.23;;;;;;;;;;5022610;28;20026;-79
2022/01/03 14:06:18;;;;;;;3.03;1.05;;;;;;;;;;5023665;28;20109;-78
2022/01/03 14:08:45;;;;;;;3.50;1.17;;;;;;;;;;5021640;28;20018;-78
2022/01/03 14:11:12;;;;;;;4.57;1.42;;;;;;;;;;5022890;28;20024;-78
2022/01/03 14:13:39;;;;;;;4.55;1.20;;;;;;;;;;5023537;28;20036;-80
2022/01/03 14:16:06;;;;;;;3.13;1.20;;;;;;;;;;5023000;28;20030;-79
2022/01/03 14:18:38;;;;;;;5.95;1.50;;;;;;;;;;5023051;28;20026;-78
2022/01/03 14:21:14;;;;;;;3.83;1.00;;;;;;;;;;5022529;28;20489;-79
2022/01/03 14:23:41;;;;;;;3.95;1.20;;;;;;;;;;5024084;28;20033;-78
2022/01/03 14:26:11;;;;;;;4.13;1.30;;;;;;;;;;5026546;28;20018;-79
2022/01/03 14:28:41;;;;;;;3.70;1.30;;;;;;;;;;5027614;28;20492;-78
2022/01/03 14:31:08;;;;;;;4.22;1.60;;;;;;;;;;5025004;28;20014;-79
2022/01/03 14:33:39;;;;;;;4.45;1.30;;;;;;;;;;5027108;28;20018;-79
2022/01/03 14:36:18;;;;;;;3.85;1.30;;;;;;;;;;5026235;28;20033;-78
2022/01/03 14:38:46;;;;;;;3.53;1.17;;;;;;;;;;5026580;28;20044;-80
2022/01/03 14:41:21;;;;;;;4.25;1.30;;;;;;;;;;5025446;28;20030;-78
2022/01/03 14:43:59;;;;;;;3.90;1.30;;;;;;;;;;5025148;28;20025;-79
2022/01/03 14:46:30;;;;;;;6.78;1.55;;;;;;;;;;5024108;28;20443;-78
2022/01/03 14:48:56;;;;;;;5.03;2.05;;;;;;;;;;5024543;28;20388;-79
2022/01/03 14:51:32;;;;;;;3.78;1.38;;;;;;;;;;5024423;28;20056;-79
2022/01/03 14:54:17;;;;;;;3.60;1.33;;;;;;;;;;5023622;28;20060;-79
2022/01/03 14:56:44;;;;;;;3.85;1.35;;;;;;;;;;5023828;28;20033;-79
2022/01/03 14:59:10;;;;;;;4.97;1.63;;;;;;;;;;5021838;28;20026;-78
2022/01/03 15:01:36;;;;;;;5.45;1.40;;;;;;;;;;5022335;28;20037;-78
2022/01/03 15:04:02;;;;;;;3.97;1.77;;;;;;;;;;5021562;28;20105;-77
2022/01/03 15:06:29;;;;;;;3.90;1.92;;;;;;;;;;5018675;28;20022;-78
2022/01/03 15:08:55;;;;;;;5.00;1.65;;;;;;;;;;5018706;28;20072;-78
2022/01/03 15:11:21;;;;;;;5.50;1.83;;;;;;;;;;5020174;28;20496;-78
2022/01/03 15:13:49;;;;;;;4.78;1.58;;;;;;;;;;5019724;28;20105;-79
2022/01/03 15:16:15;;;;;;;5.50;1.50;;;;;;;;;;5024610;28;20014;-78
2022/01/03 15:18:41;;;;;;;5.13;1.40;;;;;;;;;;5024229;28;20037;-79